Contina — ZJL6252 — position and weather

sailwx.info

Track history (hours):
 
Tides and Currents Weather Stations Pressure Air Temp Water Temp Dewpoint Dewpoint Depression Visibility Wind Speed Wind Dir Waves Ship Positions

Contina

Last reported at 2018-Feb-21 20:54 UTC. Time now 2018-Feb-21 21:29 UTC.
Position N 18°05' W 063°05'.

Length 30 m.

Type: Other ship. MMSI: 378202000.

Date/timePositionNaut miles runAvg speedWind from/ knotsBaromVisibWave heightAir tempDewpointWater temp
2018-Feb-21 20:54N 18°05' W 063°05'0 0.0
2018-Feb-21 20:27N 18°05' W 063°05'0 0.0
2018-Feb-21 20:00N 18°05' W 063°05'0 0.0
2018-Feb-21 19:30N 18°05' W 063°05'0 0.0
2018-Feb-21 18:59N 18°05' W 063°05'0 0.0
2018-Feb-21 18:29N 18°05' W 063°05'0 0.0
2018-Feb-21 17:59N 18°05' W 063°05'0 0.0
2018-Feb-21 17:20N 18°05' W 063°05'0 0.0
2018-Feb-21 16:48N 18°05' W 063°05'0 0.0
2018-Feb-21 16:24N 18°05' W 063°05'0 0.0
2018-Feb-21 15:54N 18°05' W 063°05'0 0.0
2018-Feb-21 15:23N 18°05' W 063°05'0 0.0
2018-Feb-21 14:50N 18°05' W 063°05'0 0.0
2018-Feb-21 14:21N 18°05' W 063°05'0 0.0
2018-Feb-21 13:56N 18°05' W 063°05'0 0.0
2018-Feb-21 13:20N 18°05' W 063°05'0 0.0
2018-Feb-21 12:53N 18°05' W 063°05'0 0.0
2018-Feb-21 12:26N 18°05' W 063°05'0 0.1
2018-Feb-21 11:55N 18°05' W 063°05'2 0.0
2018-Feb-19 20:37N 18°06' W 063°05'1 4.5
2018-Feb-19 20:30N 18°06' W 063°05'2 4.2
2018-Feb-19 20:00N 18°05' W 063°07'2 3.9
2018-Feb-19 19:30N 18°05' W 063°09'2 2.9
2018-Feb-19 18:58N 18°03' W 063°09'3 5.8
2018-Feb-19 18:28N 18°02' W 063°07'3 6.4
2018-Feb-19 17:59N 18°00' W 063°04'3 5.8
2018-Feb-19 17:25N 17°58' W 063°01'2 5.6
2018-Feb-19 16:59N 17°57' W 062°59'  
Track history (hours):
 
Tides and Currents Weather Stations Pressure Air Temp Water Temp Dewpoint Dewpoint Depression Visibility Wind Speed Wind Dir Waves Ship Positions

Contina

Last reported at 2018-Feb-21 20:54 UTC. Time now 2018-Feb-21 21:29 UTC.
Position N 18°05' W 063°05'.

Length 30 m.

Type: Other ship. MMSI: 378202000.

Date/timePositionNaut miles runAvg speedWind from/ knotsBaromVisibWave heightAir tempDewpointWater temp
2018-Feb-21 20:54N 18°05' W 063°05'0 0.0
2018-Feb-21 20:27N 18°05' W 063°05'0 0.0
2018-Feb-21 20:00N 18°05' W 063°05'0 0.0
2018-Feb-21 19:30N 18°05' W 063°05'0 0.0
2018-Feb-21 18:59N 18°05' W 063°05'0 0.0
2018-Feb-21 18:29N 18°05' W 063°05'0 0.0
2018-Feb-21 17:59N 18°05' W 063°05'0 0.0
2018-Feb-21 17:20N 18°05' W 063°05'0 0.0
2018-Feb-21 16:48N 18°05' W 063°05'0 0.0
2018-Feb-21 16:24N 18°05' W 063°05'0 0.0
2018-Feb-21 15:54N 18°05' W 063°05'0 0.0
2018-Feb-21 15:23N 18°05' W 063°05'0 0.0
2018-Feb-21 14:50N 18°05' W 063°05'0 0.0
2018-Feb-21 14:21N 18°05' W 063°05'0 0.0
2018-Feb-21 13:56N 18°05' W 063°05'0 0.0
2018-Feb-21 13:20N 18°05' W 063°05'0 0.0
2018-Feb-21 12:53N 18°05' W 063°05'0 0.0
2018-Feb-21 12:26N 18°05' W 063°05'0 0.1
2018-Feb-21 11:55N 18°05' W 063°05'2 0.0
2018-Feb-19 20:37N 18°06' W 063°05'1 4.5
2018-Feb-19 20:30N 18°06' W 063°05'2 4.2
2018-Feb-19 20:00N 18°05' W 063°07'2 3.9
2018-Feb-19 19:30N 18°05' W 063°09'2 2.9
2018-Feb-19 18:58N 18°03' W 063°09'3 5.8
2018-Feb-19 18:28N 18°02' W 063°07'3 6.4
2018-Feb-19 17:59N 18°00' W 063°04'3 5.8
2018-Feb-19 17:25N 17°58' W 063°01'2 5.6
2018-Feb-19 16:59N 17°57' W 062°59'  

Dump ship's entire track history